createdAt,value
2022-10-13T00:00:52.234Z,0.00
2022-10-13T00:01:52.221Z,0.00
2022-10-13T00:02:52.179Z,0.00
2022-10-13T00:03:52.142Z,0.00
2022-10-13T00:04:52.147Z,0.00
2022-10-13T00:05:52.121Z,0.00
2022-10-13T00:06:52.147Z,0.00
2022-10-13T00:07:52.063Z,0.00
2022-10-13T00:08:52.074Z,0.00
2022-10-13T00:09:52.047Z,0.00
2022-10-13T00:10:52.036Z,0.00
2022-10-13T00:11:52.069Z,0.00
2022-10-13T00:12:52.009Z,0.00
2022-10-13T00:13:51.978Z,0.00
2022-10-13T00:14:51.971Z,0.00
2022-10-13T00:15:51.932Z,0.00
2022-10-13T00:16:51.970Z,0.00
2022-10-13T00:17:51.901Z,0.00
2022-10-13T00:18:51.896Z,0.00
2022-10-13T00:19:51.900Z,0.00
2022-10-13T00:20:51.873Z,0.00
2022-10-13T00:21:51.894Z,0.00
2022-10-13T00:22:51.828Z,0.00
2022-10-13T00:23:52.056Z,0.00
2022-10-13T00:24:52.821Z,0.00
2022-10-13T00:25:51.791Z,0.00
2022-10-13T00:26:51.788Z,0.00
2022-10-13T00:27:51.778Z,0.00
2022-10-13T00:28:53.114Z,0.00
2022-10-13T00:29:52.709Z,0.00
2022-10-13T00:30:51.688Z,0.00
2022-10-13T00:31:51.721Z,0.00
2022-10-13T00:32:51.663Z,0.00
2022-10-13T00:33:51.639Z,0.00
2022-10-13T00:34:51.634Z,0.00
2022-10-13T00:35:51.612Z,0.00
2022-10-13T00:36:51.615Z,0.00
2022-10-13T00:37:51.565Z,0.00
2022-10-13T00:38:51.576Z,0.00
2022-10-13T00:39:51.535Z,0.00
2022-10-13T00:40:51.542Z,0.00
2022-10-13T00:41:51.545Z,0.00
2022-10-13T00:42:51.513Z,0.00
2022-10-13T00:43:51.583Z,0.00
2022-10-13T00:44:51.495Z,0.00
2022-10-13T00:45:51.524Z,0.00
2022-10-13T00:46:51.473Z,0.00
2022-10-13T00:47:51.441Z,0.00
2022-10-13T00:48:51.390Z,0.00
2022-10-13T00:49:51.380Z,0.00
2022-10-13T00:50:51.351Z,0.00
2022-10-13T00:51:51.360Z,0.00
2022-10-13T00:52:52.328Z,0.00
2022-10-13T00:53:51.314Z,0.00
2022-10-13T00:54:52.294Z,0.00
2022-10-13T00:55:51.276Z,0.00
2022-10-13T00:56:51.309Z,0.00
2022-10-13T00:57:51.240Z,0.00
2022-10-13T00:58:51.215Z,0.00
2022-10-13T00:59:51.247Z,0.00
2022-10-13T01:00:51.247Z,0.00
2022-10-13T01:01:51.228Z,0.00
2022-10-13T01:02:51.160Z,0.00
2022-10-13T01:03:51.144Z,0.00
2022-10-13T01:04:51.125Z,0.00
2022-10-13T01:05:51.105Z,0.00
2022-10-13T01:06:51.145Z,0.00
2022-10-13T01:07:51.105Z,0.00
2022-10-13T01:08:51.065Z,0.00
2022-10-13T01:09:51.049Z,0.00
2022-10-13T01:10:51.038Z,0.00
2022-10-13T01:11:51.054Z,0.00
2022-10-13T01:12:50.988Z,0.00
2022-10-13T01:13:50.982Z,0.00
2022-10-13T01:14:50.977Z,0.00
2022-10-13T01:15:50.965Z,0.00
2022-10-13T01:16:50.955Z,0.00
2022-10-13T01:17:50.921Z,0.00
2022-10-13T01:18:50.899Z,0.00
2022-10-13T01:19:50.902Z,0.00
2022-10-13T01:20:50.863Z,0.00
2022-10-13T01:21:50.883Z,0.00
2022-10-13T01:22:50.853Z,0.00
2022-10-13T01:23:50.804Z,0.00
2022-10-13T01:24:50.805Z,0.00
2022-10-13T01:25:50.769Z,0.00
2022-10-13T01:26:50.786Z,0.00
2022-10-13T01:27:50.744Z,0.00
2022-10-13T01:28:50.756Z,0.00
2022-10-13T01:29:50.702Z,0.00
2022-10-13T01:30:50.715Z,0.00
2022-10-13T01:31:50.714Z,0.00
2022-10-13T01:32:50.659Z,0.00
2022-10-13T01:33:50.636Z,0.00
2022-10-13T01:34:50.632Z,0.00
2022-10-13T01:35:50.603Z,0.00
2022-10-13T01:36:50.632Z,0.00
2022-10-13T01:37:50.562Z,0.00
2022-10-13T01:38:50.570Z,0.00
2022-10-13T01:39:50.532Z,0.00
2022-10-13T01:40:50.559Z,0.00
2022-10-13T01:41:50.538Z,0.00
2022-10-13T01:42:50.488Z,0.00
2022-10-13T01:43:50.464Z,0.00
2022-10-13T01:44:50.448Z,0.00
2022-10-13T01:45:50.431Z,0.00
2022-10-13T01:46:50.454Z,0.00
2022-10-13T01:47:50.404Z,0.00
2022-10-13T01:48:50.370Z,0.00
2022-10-13T01:49:50.364Z,0.00
2022-10-13T01:50:50.344Z,0.00
2022-10-13T01:51:50.374Z,0.00
2022-10-13T01:52:50.353Z,0.00
2022-10-13T01:53:50.288Z,0.00
2022-10-13T01:54:50.272Z,0.00
2022-10-13T01:55:50.262Z,0.00
2022-10-13T01:56:50.270Z,0.00
2022-10-13T01:57:50.232Z,0.00
2022-10-13T01:58:50.223Z,0.00
2022-10-13T01:59:50.177Z,0.00
2022-10-13T02:00:50.208Z,0.00
2022-10-13T02:01:50.187Z,0.00
2022-10-13T02:02:50.150Z,0.00
2022-10-13T02:03:50.120Z,0.00
2022-10-13T02:04:50.189Z,0.00
2022-10-13T02:05:50.088Z,0.00
2022-10-13T02:06:50.113Z,0.00
2022-10-13T02:07:50.065Z,0.00
2022-10-13T02:08:50.058Z,0.00
2022-10-13T02:09:50.017Z,0.00
2022-10-13T02:10:50.011Z,0.00
2022-10-13T02:11:50.050Z,0.00
2022-10-13T02:12:49.976Z,0.00
2022-10-13T02:13:49.966Z,0.00
2022-10-13T02:14:49.956Z,0.00
2022-10-13T02:15:49.936Z,0.00
2022-10-13T02:16:49.937Z,0.00
2022-10-13T02:17:49.899Z,0.00
2022-10-13T02:18:49.878Z,0.00
2022-10-13T02:19:49.874Z,0.00
2022-10-13T02:20:49.830Z,0.00
2022-10-13T02:21:49.864Z,0.00
2022-10-13T02:22:49.812Z,0.00
2022-10-13T02:23:49.781Z,0.00
2022-10-13T02:24:49.764Z,0.00
2022-10-13T02:25:49.758Z,0.00
2022-10-13T02:26:49.801Z,0.00
2022-10-13T02:27:49.720Z,0.00
2022-10-13T02:28:49.752Z,0.00
2022-10-13T02:29:49.691Z,0.00
2022-10-13T02:30:49.672Z,0.00
2022-10-13T02:31:49.688Z,0.00
2022-10-13T02:32:49.639Z,0.00
2022-10-13T02:33:49.632Z,0.00
2022-10-13T02:34:49.607Z,0.00
2022-10-13T02:35:49.577Z,0.00
2022-10-13T02:36:49.611Z,0.00
2022-10-13T02:37:49.543Z,0.00
2022-10-13T02:38:49.554Z,0.00
2022-10-13T02:39:49.511Z,0.00
2022-10-13T02:40:49.489Z,0.00
2022-10-13T02:41:49.507Z,0.00
2022-10-13T02:42:49.507Z,0.00
2022-10-13T02:43:49.459Z,0.00
2022-10-13T02:44:49.426Z,0.00
2022-10-13T02:45:49.420Z,0.00
2022-10-13T02:46:49.427Z,0.00
2022-10-13T02:47:49.385Z,0.00
2022-10-13T02:48:50.357Z,0.00
2022-10-13T02:49:49.360Z,0.00
2022-10-13T02:50:49.322Z,0.00
2022-10-13T02:51:49.336Z,0.00
2022-10-13T02:52:49.288Z,0.00
2022-10-13T02:53:49.273Z,0.00
2022-10-13T02:54:49.256Z,0.00
2022-10-13T02:55:49.273Z,0.00
2022-10-13T02:56:49.261Z,0.00
2022-10-13T02:57:49.290Z,0.00
2022-10-13T02:58:49.214Z,0.00
2022-10-13T02:59:49.164Z,0.00
2022-10-13T03:00:49.187Z,0.00
2022-10-13T03:01:49.172Z,0.00
2022-10-13T03:02:49.124Z,0.00
2022-10-13T03:03:49.108Z,0.00
2022-10-13T03:04:49.090Z,0.00
2022-10-13T03:05:49.131Z,0.00
2022-10-13T03:06:49.090Z,0.00
2022-10-13T03:07:49.054Z,0.00
2022-10-13T03:08:49.030Z,0.00
2022-10-13T03:09:48.993Z,0.00
2022-10-13T03:10:48.992Z,0.00
2022-10-13T03:11:48.996Z,0.00
2022-10-13T03:12:48.983Z,0.00
2022-10-13T03:13:48.940Z,0.00
2022-10-13T03:14:48.915Z,0.00
2022-10-13T03:15:48.958Z,0.00
2022-10-13T03:16:49.026Z,0.00
2022-10-13T03:17:48.874Z,0.00
2022-10-13T03:18:48.864Z,0.00
2022-10-13T03:19:48.851Z,0.00
2022-10-13T03:20:48.847Z,0.00
2022-10-13T03:21:48.824Z,0.00
2022-10-13T03:22:49.876Z,0.00
2022-10-13T03:23:49.758Z,0.00
2022-10-13T03:24:48.754Z,0.00
2022-10-13T03:25:48.741Z,0.00
2022-10-13T03:26:48.749Z,0.00
2022-10-13T03:27:48.690Z,0.00
2022-10-13T03:28:48.738Z,0.00
2022-10-13T03:29:48.658Z,0.00
2022-10-13T03:30:48.654Z,0.00
2022-10-13T03:31:48.664Z,0.00
2022-10-13T03:32:48.624Z,0.00
2022-10-13T03:33:48.594Z,0.00
2022-10-13T03:34:48.583Z,0.00
2022-10-13T03:35:48.562Z,0.00
2022-10-13T03:36:48.637Z,0.00
2022-10-13T03:37:48.524Z,0.00
2022-10-13T03:38:48.526Z,0.00
2022-10-13T03:39:48.492Z,0.00
2022-10-13T03:40:48.516Z,0.00
2022-10-13T03:41:48.476Z,0.00
2022-10-13T03:42:48.435Z,0.00
2022-10-13T03:43:48.424Z,0.00
2022-10-13T03:44:52.348Z,0.00
2022-10-13T03:45:49.378Z,0.00
2022-10-13T03:46:48.415Z,0.00
2022-10-13T03:47:48.388Z,0.00
2022-10-13T03:48:48.334Z,0.00
2022-10-13T03:49:48.324Z,0.00
2022-10-13T03:50:48.303Z,0.00
2022-10-13T03:51:49.308Z,0.00
2022-10-13T03:52:48.302Z,0.00
2022-10-13T03:53:48.276Z,0.00
2022-10-13T03:54:48.231Z,0.00
2022-10-13T03:55:48.224Z,0.00
2022-10-13T03:56:48.244Z,0.00
2022-10-13T03:57:48.185Z,0.00
2022-10-13T03:58:48.181Z,0.00
2022-10-13T03:59:48.159Z,0.00
2022-10-13T04:00:48.149Z,0.00
2022-10-13T04:01:48.223Z,0.00
2022-10-13T04:02:48.106Z,0.00
2022-10-13T04:03:48.084Z,0.00
2022-10-13T04:04:48.071Z,0.00
2022-10-13T04:05:48.074Z,0.00
2022-10-13T04:06:48.052Z,0.00
2022-10-13T04:07:48.014Z,0.00
2022-10-13T04:08:48.013Z,0.00
2022-10-13T04:09:47.991Z,0.00
2022-10-13T04:10:47.973Z,0.00
2022-10-13T04:11:48.075Z,0.00
2022-10-13T04:12:47.945Z,0.00
2022-10-13T04:13:47.904Z,0.00
2022-10-13T04:14:47.892Z,0.00
2022-10-13T04:15:47.903Z,0.00
2022-10-13T04:16:47.948Z,0.00
2022-10-13T04:17:47.856Z,0.00
2022-10-13T04:18:47.827Z,0.00
2022-10-13T04:19:47.832Z,0.00
2022-10-13T04:20:47.821Z,0.00
2022-10-13T04:21:47.829Z,0.00
2022-10-13T04:22:47.796Z,0.00
2022-10-13T04:23:47.748Z,0.00
2022-10-13T04:24:47.753Z,0.00
2022-10-13T04:25:47.729Z,0.00
2022-10-13T04:26:47.738Z,0.00
2022-10-13T04:27:47.671Z,0.00
2022-10-13T04:28:47.715Z,0.00
2022-10-13T04:29:47.654Z,0.00
2022-10-13T04:30:49.619Z,0.00
2022-10-13T04:31:48.665Z,0.00
2022-10-13T04:32:47.617Z,0.00
2022-10-13T04:33:47.601Z,0.00
2022-10-13T04:34:47.585Z,0.00
2022-10-13T04:35:47.566Z,0.00
2022-10-13T04:36:47.587Z,0.00
2022-10-13T04:37:47.511Z,0.00
2022-10-13T04:38:47.539Z,0.00
2022-10-13T04:39:47.511Z,0.00
2022-10-13T04:40:47.465Z,0.00
2022-10-13T04:41:47.476Z,0.00
2022-10-13T04:42:47.441Z,0.00
2022-10-13T04:43:47.435Z,0.00
2022-10-13T04:44:47.402Z,0.00
2022-10-13T04:45:47.379Z,0.00
2022-10-13T04:46:47.398Z,0.00
2022-10-13T04:47:47.444Z,0.00
2022-10-13T04:48:47.322Z,0.00
2022-10-13T04:49:47.309Z,0.00
2022-10-13T04:50:47.288Z,0.00
2022-10-13T04:51:47.298Z,0.00
2022-10-13T04:52:47.252Z,0.00
2022-10-13T04:53:47.233Z,0.00
2022-10-13T04:54:47.218Z,0.00
2022-10-13T04:55:47.248Z,0.00
2022-10-13T04:56:47.217Z,0.00
2022-10-13T04:57:47.180Z,0.00
2022-10-13T04:58:47.195Z,0.00
2022-10-13T04:59:47.133Z,0.00
2022-10-13T05:00:47.168Z,0.00
2022-10-13T05:01:47.153Z,0.00
2022-10-13T05:02:47.089Z,0.00
2022-10-13T05:03:47.107Z,0.00
2022-10-13T05:04:47.052Z,0.00
2022-10-13T05:05:47.032Z,0.00
2022-10-13T05:07:16.083Z,0.00
2022-10-13T05:07:48.991Z,0.00
2022-10-13T05:08:46.992Z,0.00
2022-10-13T05:09:46.958Z,0.00
2022-10-13T05:10:46.944Z,0.00
2022-10-13T05:11:46.948Z,0.00
2022-10-13T05:12:46.911Z,0.00
2022-10-13T05:13:46.888Z,0.00
2022-10-13T05:14:46.871Z,0.00
2022-10-13T05:15:46.853Z,0.00
2022-10-13T05:16:46.892Z,0.00
2022-10-13T05:17:46.838Z,0.00
2022-10-13T05:18:47.804Z,0.00
2022-10-13T05:19:46.863Z,0.00
2022-10-13T05:20:46.860Z,0.00
2022-10-13T05:21:46.774Z,0.00
2022-10-13T05:22:46.749Z,0.00
2022-10-13T05:23:46.730Z,0.00
2022-10-13T05:24:46.709Z,0.00
2022-10-13T05:25:46.685Z,0.00
2022-10-13T05:26:46.695Z,0.00
2022-10-13T05:27:46.657Z,0.00
2022-10-13T05:28:46.695Z,0.00
2022-10-13T05:29:46.609Z,0.00
2022-10-13T05:30:46.592Z,5.62
2022-10-13T05:31:46.603Z,5.62
2022-10-13T05:32:50.267Z,5.62
2022-10-13T05:33:47.538Z,5.62
2022-10-13T05:34:46.547Z,5.62
2022-10-13T05:35:46.525Z,11.25
2022-10-13T05:36:46.559Z,11.25
2022-10-13T05:37:46.487Z,11.25
2022-10-13T05:38:46.479Z,16.88
2022-10-13T05:39:48.758Z,16.88
2022-10-13T05:40:47.426Z,22.50
2022-10-13T05:41:46.436Z,22.50
2022-10-13T05:42:46.419Z,28.12
2022-10-13T05:43:46.377Z,28.12
2022-10-13T05:44:46.379Z,28.12
2022-10-13T05:45:46.342Z,22.50
2022-10-13T05:46:46.387Z,22.50
2022-10-13T05:47:46.304Z,22.50
2022-10-13T05:48:46.290Z,28.12
2022-10-13T05:49:46.285Z,28.12
2022-10-13T05:50:46.270Z,33.75
2022-10-13T05:51:46.289Z,39.38
2022-10-13T05:52:46.215Z,45.00
2022-10-13T05:53:50.238Z,50.62
2022-10-13T05:54:47.197Z,56.25
2022-10-13T05:55:46.151Z,61.88
2022-10-13T05:56:46.190Z,61.88
2022-10-13T05:57:46.167Z,67.50
2022-10-13T05:58:46.109Z,73.12
2022-10-13T05:59:46.105Z,78.75
2022-10-13T06:00:46.083Z,84.38
2022-10-13T06:01:46.112Z,95.62
2022-10-13T06:02:46.081Z,101.25
2022-10-13T06:03:46.036Z,101.25
2022-10-13T06:04:46.007Z,106.88
2022-10-13T06:05:45.997Z,112.50
2022-10-13T06:06:45.975Z,112.50
2022-10-13T06:07:46.001Z,118.12
2022-10-13T06:08:45.943Z,118.12
2022-10-13T06:09:45.928Z,118.12
2022-10-13T06:10:45.923Z,123.75
2022-10-13T06:11:45.882Z,123.75
2022-10-13T06:12:45.920Z,129.38
2022-10-13T06:13:45.858Z,135.00
2022-10-13T06:14:45.845Z,135.00
2022-10-13T06:15:45.821Z,135.00
2022-10-13T06:16:45.812Z,135.00
2022-10-13T06:17:45.816Z,135.00
2022-10-13T06:18:45.797Z,135.00
2022-10-13T06:19:45.749Z,135.00
2022-10-13T06:20:45.773Z,135.00
2022-10-13T06:21:45.712Z,135.00
2022-10-13T06:22:45.764Z,129.38
2022-10-13T06:23:45.718Z,129.38
2022-10-13T06:24:45.714Z,129.38
2022-10-13T06:25:45.662Z,129.38
2022-10-13T06:26:45.646Z,135.00
2022-10-13T06:27:45.659Z,168.75
2022-10-13T06:28:50.015Z,180.00
2022-10-13T06:29:47.592Z,168.75
2022-10-13T06:30:45.575Z,185.62
2022-10-13T06:31:45.618Z,185.62
2022-10-13T06:32:45.614Z,208.12
2022-10-13T06:33:45.521Z,315.00
2022-10-13T06:34:45.526Z,230.62
2022-10-13T06:35:45.489Z,230.62
2022-10-13T06:36:45.615Z,208.12
2022-10-13T06:37:45.494Z,225.00
2022-10-13T06:38:45.449Z,230.62
2022-10-13T06:39:45.417Z,163.12
2022-10-13T06:40:45.409Z,157.50
2022-10-13T06:41:45.406Z,157.50
2022-10-13T06:42:45.407Z,163.12
2022-10-13T06:43:45.370Z,163.12
2022-10-13T06:44:45.360Z,163.12
2022-10-13T06:45:45.319Z,163.12
2022-10-13T06:46:45.301Z,163.12
2022-10-13T06:47:45.324Z,168.75
2022-10-13T06:48:45.269Z,168.75
2022-10-13T06:49:45.239Z,163.12
2022-10-13T06:50:45.232Z,157.50
2022-10-13T06:51:45.210Z,157.50
2022-10-13T06:52:45.225Z,157.50
2022-10-13T06:53:45.175Z,163.12
2022-10-13T06:54:45.163Z,168.75
2022-10-13T06:55:48.060Z,174.38
2022-10-13T06:56:46.133Z,168.75
2022-10-13T06:57:45.127Z,174.38
2022-10-13T06:58:45.077Z,185.62
2022-10-13T06:59:45.056Z,196.88
2022-10-13T07:00:45.141Z,196.88
2022-10-13T07:01:45.114Z,191.25
2022-10-13T07:02:45.053Z,185.62
2022-10-13T07:03:45.001Z,180.00
2022-10-13T07:04:44.973Z,174.38
2022-10-13T07:05:44.994Z,168.75
2022-10-13T07:06:44.971Z,168.75
2022-10-13T07:07:44.948Z,163.12
2022-10-13T07:08:44.896Z,157.50
2022-10-13T07:09:44.918Z,151.88
2022-10-13T07:10:44.868Z,146.25
2022-10-13T07:11:44.863Z,157.50
2022-10-13T07:12:44.873Z,168.75
2022-10-13T07:13:46.581Z,180.00
2022-10-13T07:14:45.820Z,185.62
2022-10-13T07:15:44.781Z,202.50
2022-10-13T07:16:44.768Z,225.00
2022-10-13T07:17:45.771Z,247.50
2022-10-13T07:18:44.764Z,253.12
2022-10-13T07:19:44.707Z,247.50
2022-10-13T07:20:44.690Z,247.50
2022-10-13T07:21:44.672Z,241.88
2022-10-13T07:22:44.696Z,230.62
2022-10-13T07:23:44.686Z,219.38
2022-10-13T07:24:44.617Z,213.75
2022-10-13T07:25:44.614Z,213.75
2022-10-13T07:26:44.604Z,236.25
2022-10-13T07:27:44.613Z,258.75
2022-10-13T07:28:44.602Z,264.38
2022-10-13T07:29:44.536Z,241.88
2022-10-13T07:30:44.544Z,219.38
2022-10-13T07:31:44.539Z,219.38
2022-10-13T07:32:44.531Z,225.00
2022-10-13T07:33:44.470Z,236.25
2022-10-13T07:34:44.455Z,241.88
2022-10-13T07:35:44.425Z,247.50
2022-10-13T07:36:44.417Z,258.75
2022-10-13T07:37:44.447Z,264.38
2022-10-13T07:38:44.377Z,270.00
2022-10-13T07:39:44.379Z,270.00
2022-10-13T07:40:44.340Z,281.25
2022-10-13T07:41:47.546Z,286.88
2022-10-13T07:42:46.385Z,286.88
2022-10-13T07:43:44.306Z,275.62
2022-10-13T07:44:44.277Z,264.38
2022-10-13T07:45:44.255Z,253.12
2022-10-13T07:46:44.266Z,247.50
2022-10-13T07:47:44.265Z,247.50
2022-10-13T07:48:44.216Z,253.12
2022-10-13T07:49:44.199Z,258.75
2022-10-13T07:50:44.179Z,275.62
2022-10-13T07:51:44.162Z,292.50
2022-10-13T07:52:44.221Z,309.38
2022-10-13T07:53:44.125Z,331.88
2022-10-13T07:54:44.130Z,360.00
2022-10-13T07:55:44.087Z,376.88
2022-10-13T07:56:44.063Z,393.75
2022-10-13T07:57:44.082Z,405.00
2022-10-13T07:58:44.026Z,405.00
2022-10-13T07:59:44.033Z,410.62
2022-10-13T08:00:44.068Z,421.88
2022-10-13T08:01:44.019Z,455.62
2022-10-13T08:02:44.004Z,478.12
2022-10-13T08:03:47.133Z,478.12
2022-10-13T08:04:44.929Z,472.50
2022-10-13T08:05:43.964Z,478.12
2022-10-13T08:06:43.958Z,495.00
2022-10-13T08:07:43.882Z,528.75
2022-10-13T08:08:43.864Z,562.50
2022-10-13T08:09:43.879Z,568.12
2022-10-13T08:10:43.864Z,590.62
2022-10-13T08:11:44.830Z,635.62
2022-10-13T08:12:43.795Z,686.25
2022-10-13T08:13:43.769Z,703.12
2022-10-13T08:14:43.859Z,725.62
2022-10-13T08:15:43.733Z,680.62
2022-10-13T08:16:43.750Z,658.12
2022-10-13T08:17:43.720Z,635.62
2022-10-13T08:18:43.700Z,646.88
2022-10-13T08:19:43.660Z,691.88
2022-10-13T08:20:44.048Z,556.88
2022-10-13T08:22:00.446Z,534.38
2022-10-13T08:22:45.613Z,568.12
2022-10-13T08:23:43.619Z,590.62
2022-10-13T08:24:43.591Z,596.25
2022-10-13T08:25:43.591Z,641.25
2022-10-13T08:26:43.621Z,686.25
2022-10-13T08:27:51.060Z,691.88
2022-10-13T08:29:02.970Z,736.88
2022-10-13T08:29:45.503Z,765.00
2022-10-13T08:30:43.567Z,742.50
2022-10-13T08:31:43.716Z,630.00
2022-10-13T08:32:43.465Z,523.12
2022-10-13T08:33:43.437Z,500.62
2022-10-13T08:34:43.457Z,568.12
2022-10-13T08:35:43.410Z,675.00
2022-10-13T08:36:43.419Z,742.50
2022-10-13T08:37:43.365Z,832.50
2022-10-13T08:38:43.357Z,1029.38
2022-10-13T08:39:43.386Z,1147.50
2022-10-13T08:40:43.324Z,1271.25
2022-10-13T08:41:43.326Z,1321.88
2022-10-13T08:42:43.298Z,1288.12
2022-10-13T08:44:13.475Z,1288.12
2022-10-13T08:45:45.253Z,1254.38
2022-10-13T08:46:43.252Z,1288.12
2022-10-13T08:47:43.261Z,1310.62
2022-10-13T08:48:43.186Z,1327.50
2022-10-13T08:49:43.386Z,1440.00
2022-10-13T08:50:43.145Z,1659.38
2022-10-13T08:51:43.166Z,1681.88
2022-10-13T08:52:43.153Z,1800.00
2022-10-13T08:53:43.104Z,1867.50
2022-10-13T08:54:43.142Z,1878.75
2022-10-13T08:55:43.075Z,1608.75
2022-10-13T08:56:43.055Z,1749.38
2022-10-13T08:57:43.081Z,1951.88
2022-10-13T08:58:43.070Z,2041.88
2022-10-13T08:59:43.002Z,2188.12
2022-10-13T09:00:43.000Z,2655.00
2022-10-13T09:01:42.997Z,2694.38
2022-10-13T09:02:42.982Z,3358.12
2022-10-13T09:03:42.942Z,4230.00
2022-10-13T09:04:42.897Z,4612.50
2022-10-13T09:05:42.914Z,4230.00
2022-10-13T09:06:42.901Z,3144.38
2022-10-13T09:07:42.948Z,1884.38
2022-10-13T09:08:43.027Z,2143.12
2022-10-13T09:09:42.912Z,3026.25
2022-10-13T09:10:42.832Z,2705.62
2022-10-13T09:11:43.083Z,3228.75
2022-10-13T09:12:42.791Z,3510.00
2022-10-13T09:13:42.767Z,3144.38
2022-10-13T09:14:42.796Z,3273.75
2022-10-13T09:15:42.761Z,3735.00
2022-10-13T09:16:42.732Z,4151.25
2022-10-13T09:17:42.934Z,4320.00
2022-10-13T09:18:42.785Z,2655.00
2022-10-13T09:19:42.973Z,3234.38
2022-10-13T09:20:42.695Z,4331.25
2022-10-13T09:21:42.759Z,4078.12
2022-10-13T09:22:42.647Z,4426.88
2022-10-13T09:23:42.653Z,4488.75
2022-10-13T09:24:42.692Z,4055.62
2022-10-13T09:25:42.784Z,4072.50
2022-10-13T09:26:43.592Z,4359.38
2022-10-13T09:27:42.605Z,4010.62
2022-10-13T09:28:42.629Z,4095.00
2022-10-13T09:29:42.686Z,3870.00
2022-10-13T09:30:42.554Z,3493.12
2022-10-13T09:31:42.506Z,3425.62
2022-10-13T09:32:42.479Z,4134.38
2022-10-13T09:33:42.459Z,4083.75
2022-10-13T09:34:42.488Z,4117.50
2022-10-13T09:35:42.444Z,3560.62
2022-10-13T09:36:42.601Z,3324.38
2022-10-13T09:37:42.433Z,3031.88
2022-10-13T09:38:42.678Z,3600.00
2022-10-13T09:39:42.427Z,2874.38
2022-10-13T09:41:42.636Z,2610.00
2022-10-13T09:42:42.290Z,2508.75
2022-10-13T09:43:42.431Z,2328.75
2022-10-13T09:44:42.373Z,2199.38
2022-10-13T09:45:42.290Z,2070.00
2022-10-13T09:46:42.499Z,1861.88
2022-10-13T09:47:42.269Z,1687.50
2022-10-13T09:48:42.298Z,1704.38
2022-10-13T09:49:42.328Z,1676.25
2022-10-13T09:50:43.264Z,1693.12
2022-10-13T09:51:42.200Z,1822.50
2022-10-13T09:52:42.187Z,1935.00
2022-10-13T09:53:42.149Z,1873.12
2022-10-13T09:54:42.226Z,1957.50
2022-10-13T09:55:42.100Z,2047.50
2022-10-13T09:56:42.080Z,1935.00
2022-10-13T09:57:42.105Z,1951.88
2022-10-13T09:58:42.586Z,2120.62
2022-10-13T09:59:42.253Z,2092.50
2022-10-13T10:00:42.034Z,2266.88
2022-10-13T10:01:42.034Z,2418.75
2022-10-13T10:02:41.989Z,2587.50
2022-10-13T10:03:42.066Z,2604.38
2022-10-13T10:04:41.942Z,2491.88
2022-10-13T10:05:41.972Z,2289.38
2022-10-13T10:06:41.950Z,2289.38
2022-10-13T10:07:41.903Z,2390.62
2022-10-13T10:09:02.285Z,2351.25
2022-10-13T10:09:44.044Z,2283.75
2022-10-13T10:10:41.894Z,2193.75
2022-10-13T10:11:41.864Z,2233.12
2022-10-13T10:12:41.820Z,2131.88
2022-10-13T10:13:41.848Z,2036.25
2022-10-13T10:14:41.832Z,1912.50
2022-10-13T10:15:41.816Z,1800.00
2022-10-13T10:16:41.776Z,1636.88
2022-10-13T10:17:42.841Z,1563.75
2022-10-13T10:18:41.922Z,1614.38
2022-10-13T10:19:41.709Z,1558.12
2022-10-13T10:20:41.829Z,1428.75
2022-10-13T10:21:41.689Z,1366.88
2022-10-13T10:22:41.896Z,1383.75
2022-10-13T10:23:41.907Z,1333.12
2022-10-13T10:24:41.644Z,1411.88
2022-10-13T10:25:41.646Z,1338.75
2022-10-13T10:26:41.878Z,1215.00
2022-10-13T10:27:43.765Z,1175.62
2022-10-13T10:28:41.619Z,928.12
2022-10-13T10:29:41.677Z,821.25
2022-10-13T10:30:41.567Z,911.25
2022-10-13T10:31:41.707Z,956.25
2022-10-13T10:32:41.530Z,1676.25
2022-10-13T10:33:41.551Z,1113.75
2022-10-13T10:34:41.631Z,1440.00
2022-10-13T10:35:42.429Z,1361.25
2022-10-13T10:36:41.468Z,1063.12
2022-10-13T10:37:41.481Z,1018.12
2022-10-13T10:38:41.404Z,1102.50
2022-10-13T10:39:41.524Z,1383.75
2022-10-13T10:40:41.388Z,1203.75
2022-10-13T10:41:41.377Z,1333.12
2022-10-13T10:42:41.394Z,1276.88
2022-10-13T10:43:41.379Z,1119.38
2022-10-13T10:44:41.445Z,1338.75
2022-10-13T10:45:41.523Z,1378.12
2022-10-13T10:46:41.311Z,1305.00
2022-10-13T10:47:41.324Z,1366.88
2022-10-13T10:48:41.273Z,1558.12
2022-10-13T10:49:41.407Z,1687.50
2022-10-13T10:50:41.215Z,1800.00
2022-10-13T10:51:41.198Z,1828.12
2022-10-13T10:52:41.162Z,1839.38
2022-10-13T10:53:41.236Z,2829.38
2022-10-13T10:54:45.066Z,2486.25
2022-10-13T10:55:42.120Z,2694.38
2022-10-13T10:56:41.154Z,2171.25
2022-10-13T10:57:41.120Z,2216.25
2022-10-13T10:58:41.070Z,2424.38
2022-10-13T10:59:41.134Z,3363.75
2022-10-13T11:00:40.984Z,3701.25
2022-10-13T11:01:41.128Z,3459.38
2022-10-13T11:02:41.074Z,3262.50
2022-10-13T11:03:41.023Z,3853.12
2022-10-13T11:04:40.999Z,4111.88
2022-10-13T11:05:40.945Z,3459.38
2022-10-13T11:06:41.114Z,1732.50
2022-10-13T11:07:40.904Z,1153.12
2022-10-13T11:08:41.092Z,1051.88
2022-10-13T11:09:41.080Z,1035.00
2022-10-13T11:10:40.892Z,1096.88
2022-10-13T11:11:40.939Z,1192.50
2022-10-13T11:12:41.665Z,1119.38
2022-10-13T11:13:40.855Z,1018.12
2022-10-13T11:14:41.433Z,815.62
2022-10-13T11:15:40.930Z,804.38
2022-10-13T11:16:40.875Z,821.25
2022-10-13T11:17:53.954Z,916.88
2022-10-13T11:18:41.708Z,995.62
2022-10-13T11:19:40.840Z,1046.25
2022-10-13T11:20:40.670Z,1046.25
2022-10-13T11:21:40.671Z,1254.38
2022-10-13T11:22:40.684Z,1231.88
2022-10-13T11:23:40.617Z,1209.38
2022-10-13T11:24:40.689Z,1068.75
2022-10-13T11:25:40.621Z,1068.75
2022-10-13T11:26:40.552Z,1113.75
2022-10-13T11:27:40.579Z,1091.25
2022-10-13T11:28:40.693Z,1057.50
2022-10-13T11:29:40.614Z,1035.00
2022-10-13T11:30:40.542Z,1231.88
2022-10-13T11:31:40.548Z,1260.00
2022-10-13T11:32:40.586Z,1231.88
2022-10-13T11:33:40.451Z,1220.62
2022-10-13T11:34:40.765Z,1220.62
2022-10-13T11:35:41.582Z,1192.50
2022-10-13T11:36:40.653Z,1198.12
2022-10-13T11:37:40.410Z,1186.88
2022-10-13T11:38:40.354Z,1080.00
2022-10-13T11:39:40.377Z,1051.88
2022-10-13T11:40:40.357Z,916.88
2022-10-13T11:41:40.336Z,945.00
2022-10-13T11:42:40.787Z,933.75
2022-10-13T11:43:40.354Z,984.38
2022-10-13T11:44:40.273Z,1001.25
2022-10-13T11:45:40.271Z,1170.00
2022-10-13T11:46:40.243Z,1181.25
2022-10-13T11:47:40.264Z,1023.75
2022-10-13T11:48:40.186Z,1023.75
2022-10-13T11:49:40.233Z,961.88
2022-10-13T11:50:40.381Z,1085.62
2022-10-13T11:51:40.106Z,995.62
2022-10-13T11:52:40.111Z,1006.88
2022-10-13T11:53:40.160Z,933.75
2022-10-13T11:54:40.209Z,720.00
2022-10-13T11:55:40.226Z,573.75
2022-10-13T11:56:42.008Z,528.75
2022-10-13T11:57:40.052Z,540.00
2022-10-13T11:58:40.169Z,500.62
2022-10-13T11:59:40.113Z,405.00
2022-10-13T12:00:40.005Z,360.00
2022-10-13T12:01:40.980Z,399.38
2022-10-13T12:02:40.118Z,382.50
2022-10-13T12:03:39.932Z,343.12
2022-10-13T12:04:45.574Z,365.62
2022-10-13T12:05:41.018Z,472.50
2022-10-13T12:06:39.919Z,540.00
2022-10-13T12:07:40.064Z,551.25
2022-10-13T12:08:40.050Z,551.25
2022-10-13T12:09:39.856Z,590.62
2022-10-13T12:10:39.823Z,675.00
2022-10-13T12:11:39.804Z,675.00
2022-10-13T12:12:39.829Z,658.12
2022-10-13T12:13:39.851Z,652.50
2022-10-13T12:14:39.949Z,652.50
2022-10-13T12:15:41.496Z,658.12
2022-10-13T12:16:41.080Z,624.38
2022-10-13T12:17:39.853Z,630.00
2022-10-13T12:18:39.728Z,601.88
2022-10-13T12:19:39.759Z,613.12
2022-10-13T12:20:40.136Z,624.38
2022-10-13T12:21:39.719Z,686.25
2022-10-13T12:22:40.471Z,708.75
2022-10-13T12:23:39.569Z,669.38
2022-10-13T12:24:39.747Z,635.62
2022-10-13T12:25:39.739Z,601.88
2022-10-13T12:26:39.747Z,613.12
2022-10-13T12:27:39.597Z,601.88
2022-10-13T12:28:39.588Z,585.00
2022-10-13T12:29:39.505Z,585.00
2022-10-13T12:30:39.491Z,641.25
2022-10-13T12:31:39.502Z,675.00
2022-10-13T12:32:39.511Z,703.12
2022-10-13T12:33:39.662Z,725.62
2022-10-13T12:34:39.522Z,759.38
2022-10-13T12:35:39.411Z,765.00
2022-10-13T12:36:39.476Z,753.75
2022-10-13T12:37:39.359Z,736.88
2022-10-13T12:38:39.320Z,731.25
2022-10-13T12:39:39.507Z,736.88
2022-10-13T12:40:39.364Z,725.62
2022-10-13T12:41:39.342Z,708.75
2022-10-13T12:42:39.312Z,675.00
2022-10-13T12:43:39.263Z,641.25
2022-10-13T12:44:39.345Z,607.50
2022-10-13T12:45:39.346Z,590.62
2022-10-13T12:46:39.246Z,579.38